Time;durP1;ratioP1;P1;durP2;ratioP2;P2;SDS_P1;SDS_P2;PMS_P1;PMS_P2;Temp;Humidity;BMP_temperature;BMP_pressure;BME280_temperature;BME280_humidity;BME280_pressure;Samples;Min_cycle;Max_cycle;Signal;HPM_P1;HPM_P2
2022/12/29 00:00:01;;;;;;;15.83;9.60;;;3.10;99.90;;;;;;5054851;28;20577;-72
2022/12/29 00:02:27;;;;;;;19.70;9.90;;;3.10;99.90;;;;;;5054440;28;20205;-73
2022/12/29 00:04:54;;;;;;;16.17;8.63;;;3.10;99.90;;;;;;5054377;28;20202;-71
2022/12/29 00:07:21;;;;;;;15.53;8.57;;;3.20;99.90;;;;;;5053925;28;20301;-72
2022/12/29 00:09:48;;;;;;;14.23;8.73;;;3.20;99.90;;;;;;5053852;28;20212;-74
2022/12/29 00:12:15;;;;;;;13.33;8.03;;;3.20;99.90;;;;;;5054148;28;20213;-72
2022/12/29 00:17:27;;;;;;;16.47;8.70;;;3.20;99.90;;;;;;5055014;28;20298;-73
2022/12/29 00:36:31;;;;;;;15.07;8.67;;;3.20;99.90;;;;;;5053745;28;20621;-73
2022/12/29 00:44:30;;;;;;;13.90;7.90;;;3.30;99.90;;;;;;5053552;28;20232;-74
2022/12/29 00:47:02;;;;;;;13.30;8.30;;;3.30;99.90;;;;;;5053721;28;20210;-73
2022/12/29 00:49:30;;;;;;;13.13;7.57;;;3.30;99.90;;;;;;5053850;28;20641;-73
2022/12/29 00:52:00;;;;;;;15.83;8.77;;;3.30;99.90;;;;;;5053735;28;20213;-73
2022/12/29 00:54:27;;;;;;;12.90;7.73;;;3.30;99.90;;;;;;5052917;28;20233;-71
2022/12/29 00:56:54;;;;;;;12.03;7.77;;;3.30;99.90;;;;;;5053208;28;20201;-72
2022/12/29 00:59:23;;;;;;;12.80;7.70;;;3.30;99.90;;;;;;5053063;28;20224;-71
2022/12/29 01:01:51;;;;;;;13.43;7.23;;;3.30;99.90;;;;;;5053056;28;20648;-72
2022/12/29 01:04:19;;;;;;;12.07;7.57;;;3.30;99.90;;;;;;5053026;28;20208;-72
2022/12/29 01:06:46;;;;;;;17.07;7.70;;;3.30;99.90;;;;;;5052709;28;20205;-72
2022/12/29 01:11:58;;;;;;;13.87;8.00;;;3.30;99.90;;;;;;5053095;28;20660;-72
2022/12/29 01:14:25;;;;;;;13.87;7.30;;;3.30;99.90;;;;;;5053032;28;20239;-74
2022/12/29 01:16:52;;;;;;;12.50;7.37;;;3.30;99.90;;;;;;5052445;28;20209;-73
2022/12/29 01:19:21;;;;;;;15.73;7.97;;;3.30;99.90;;;;;;5052984;28;20205;-73
2022/12/29 01:21:49;;;;;;;12.83;7.43;;;3.30;99.90;;;;;;5074567;28;20255;-72
2022/12/29 01:24:16;;;;;;;12.97;6.90;;;3.30;99.90;;;;;;5090035;28;20564;-72
2022/12/29 01:26:43;;;;;;;13.13;7.30;;;3.30;99.90;;;;;;5052295;28;20213;-72
2022/12/29 01:29:10;;;;;;;13.17;7.17;;;3.30;99.90;;;;;;5052923;28;20201;-73
2022/12/29 01:31:37;;;;;;;13.40;7.70;;;3.30;99.90;;;;;;5052498;28;20208;-72
2022/12/29 01:34:05;;;;;;;11.47;6.50;;;3.20;99.90;;;;;;5052316;28;20236;-72
2022/12/29 01:36:33;;;;;;;13.43;6.80;;;3.20;99.90;;;;;;5052457;28;20221;-73
2022/12/29 01:39:00;;;;;;;12.10;6.83;;;3.10;99.90;;;;;;5052592;28;20201;-73
2022/12/29 01:41:28;;;;;;;11.40;6.67;;;3.10;99.90;;;;;;5054817;28;20209;-73
2022/12/29 01:43:58;;;;;;;11.33;6.80;;;3.10;99.90;;;;;;5067926;28;20219;-71
2022/12/29 01:46:28;;;;;;;9.57;6.17;;;3.10;99.90;;;;;;5072129;28;20232;-73
2022/12/29 01:49:00;;;;;;;10.03;6.57;;;3.00;99.90;;;;;;5073975;28;20205;-71
2022/12/29 01:51:31;;;;;;;11.90;6.63;;;3.00;99.90;;;;;;5072323;28;20192;-72
2022/12/29 01:54:02;;;;;;;10.27;6.73;;;3.00;99.90;;;;;;5069797;28;20670;-73
2022/12/29 01:56:29;;;;;;;11.00;6.50;;;3.00;99.90;;;;;;5073533;28;20197;-73
2022/12/29 01:59:01;;;;;;;12.07;7.00;;;3.00;99.90;;;;;;5064875;28;20205;-71
2022/12/29 02:01:28;;;;;;;10.00;6.70;;;3.00;99.90;;;;;;5066615;28;20203;-71
2022/12/29 02:03:55;;;;;;;12.03;6.97;;;3.00;99.90;;;;;;5071162;28;20204;-73
2022/12/29 02:06:25;;;;;;;10.27;6.67;;;2.90;99.90;;;;;;5071623;28;20207;-72
2022/12/29 02:08:55;;;;;;;13.83;7.83;;;2.90;99.90;;;;;;5071590;28;20258;-74
2022/12/29 02:11:25;;;;;;;12.33;6.90;;;2.90;99.90;;;;;;5071800;28;20195;-73
2022/12/29 02:13:52;;;;;;;10.77;6.87;;;2.90;99.90;;;;;;5071099;28;20208;-72
2022/12/29 02:16:40;;;;;;;11.17;6.73;;;2.90;99.90;;;;;;5062594;28;20221;-77
2022/12/29 02:19:52;;;;;;;12.90;6.60;;;2.80;99.90;;;;;;5065226;28;20204;-77
2022/12/29 02:22:28;;;;;;;13.43;7.10;;;2.80;99.90;;;;;;5072860;28;20208;-77
2022/12/29 02:25:38;;;;;;;12.97;6.83;;;2.80;99.90;;;;;;5072823;28;20196;-78
2022/12/29 02:28:34;;;;;;;12.13;6.70;;;2.80;99.90;;;;;;4981176;28;20203;-77
2022/12/29 02:31:14;;;;;;;11.67;6.73;;;2.70;99.90;;;;;;4984830;28;20215;-76
2022/12/29 02:33:55;;;;;;;11.67;6.73;;;2.70;99.90;;;;;;4984603;28;20219;-76
2022/12/29 02:36:30;;;;;;;11.10;7.03;;;2.70;99.90;;;;;;4981132;28;20702;-76
2022/12/29 02:39:05;;;;;;;11.10;7.47;;;2.70;99.90;;;;;;4990624;28;20210;-77
2022/12/29 02:41:34;;;;;;;9.97;7.07;;;2.60;99.90;;;;;;4988908;28;20206;-77
2022/12/29 02:44:11;;;;;;;11.30;6.67;;;2.60;99.90;;;;;;4990823;28;20258;-77
2022/12/29 02:46:45;;;;;;;11.57;6.50;;;2.60;99.90;;;;;;4990628;28;20211;-77
2022/12/29 02:49:16;;;;;;;10.60;6.30;;;2.60;99.90;;;;;;4989883;28;20207;-77
2022/12/29 02:51:51;;;;;;;9.53;6.17;;;2.60;99.90;;;;;;4989127;28;20211;-76
2022/12/29 02:57:03;;;;;;;12.93;6.73;;;2.60;99.90;;;;;;4970983;28;20320;-77
2022/12/29 02:59:30;;;;;;;12.23;7.00;;;2.60;99.90;;;;;;5026123;28;20211;-77
2022/12/29 03:02:23;;;;;;;11.77;6.57;;;2.60;99.90;;;;;;5051613;28;20201;-77
2022/12/29 03:05:21;;;;;;;13.37;6.70;;;2.50;99.90;;;;;;5051361;28;20206;-76
2022/12/29 03:07:58;;;;;;;10.87;6.60;;;2.60;99.90;;;;;;5052083;28;20205;-77
2022/12/29 03:10:36;;;;;;;13.23;6.80;;;2.60;99.90;;;;;;5051744;28;20190;-76
2022/12/29 03:16:08;;;;;;;10.50;6.90;;;2.60;99.90;;;;;;5055439;28;20311;-76
2022/12/29 03:18:42;;;;;;;12.97;7.10;;;2.60;99.90;;;;;;5064616;28;20200;-77
2022/12/29 03:21:15;;;;;;;13.50;7.60;;;2.60;99.90;;;;;;5076459;28;20200;-77
2022/12/29 03:23:47;;;;;;;10.13;7.03;;;2.60;99.90;;;;;;5076663;28;20207;-78
2022/12/29 03:26:16;;;;;;;13.20;7.27;;;2.60;99.90;;;;;;5077179;28;20546;-76
2022/12/29 03:28:49;;;;;;;11.53;6.93;;;2.50;99.90;;;;;;5076614;28;20201;-76
2022/12/29 03:31:17;;;;;;;14.87;8.50;;;2.50;99.90;;;;;;5076226;28;20200;-76
2022/12/29 03:33:46;;;;;;;13.73;8.13;;;2.40;99.90;;;;;;5076479;28;20213;-77
2022/12/29 03:36:18;;;;;;;11.37;8.13;;;2.40;99.90;;;;;;5077141;28;20217;-76
2022/12/29 03:38:50;;;;;;;13.33;9.07;;;2.40;99.90;;;;;;5063341;28;20684;-77
2022/12/29 03:41:21;;;;;;;14.63;9.60;;;2.40;99.90;;;;;;5055252;28;20196;-76
2022/12/29 03:43:48;;;;;;;17.40;10.03;;;2.40;99.90;;;;;;5055429;28;20229;-76
2022/12/29 03:46:15;;;;;;;17.03;9.87;;;2.40;99.90;;;;;;5055565;28;20201;-77
2022/12/29 03:48:42;;;;;;;15.10;8.60;;;2.40;99.90;;;;;;5069336;28;20212;-76
2022/12/29 03:51:10;;;;;;;14.17;8.60;;;2.30;99.90;;;;;;5076444;28;20219;-77
2022/12/29 03:53:37;;;;;;;14.27;9.17;;;2.40;99.90;;;;;;5076120;28;20209;-78
2022/12/29 03:56:04;;;;;;;12.07;8.60;;;2.30;99.90;;;;;;5076434;28;20212;-76
2022/12/29 03:58:31;;;;;;;14.03;8.67;;;2.40;99.90;;;;;;5074602;28;20200;-77
2022/12/29 04:00:58;;;;;;;12.93;8.63;;;2.40;99.90;;;;;;5076029;28;20805;-76
2022/12/29 04:03:25;;;;;;;14.83;8.97;;;2.30;99.90;;;;;;5071073;28;20284;-76
2022/12/29 04:05:51;;;;;;;15.30;9.97;;;2.30;99.90;;;;;;5055863;28;20216;-78
2022/12/29 04:08:19;;;;;;;14.20;8.87;;;2.30;99.90;;;;;;5055437;28;20210;-77
2022/12/29 04:10:46;;;;;;;16.23;9.57;;;2.30;99.90;;;;;;5055697;28;20212;-78
2022/12/29 04:13:13;;;;;;;13.63;8.70;;;2.30;99.90;;;;;;5055936;28;20216;-77
2022/12/29 04:15:41;;;;;;;13.43;8.40;;;2.20;99.90;;;;;;5074947;28;20224;-76
2022/12/29 04:18:08;;;;;;;14.13;8.33;;;2.20;99.90;;;;;;5075132;28;20196;-78
2022/12/29 04:23:20;;;;;;;16.03;9.50;;;2.10;99.90;;;;;;5072576;28;20207;-76
2022/12/29 04:25:48;;;;;;;15.53;9.90;;;2.10;99.90;;;;;;5054775;28;20221;-76
2022/12/29 04:28:14;;;;;;;17.53;10.23;;;2.10;99.90;;;;;;5055067;28;20205;-76
2022/12/29 04:30:41;;;;;;;15.03;9.27;;;2.10;99.90;;;;;;5055307;28;20216;-76
2022/12/29 04:33:08;;;;;;;17.60;10.80;;;2.10;99.90;;;;;;5076442;28;20212;-76
2022/12/29 04:35:35;;;;;;;16.93;10.07;;;2.10;99.90;;;;;;5074521;28;20231;-77
2022/12/29 04:38:02;;;;;;;17.73;10.63;;;2.20;99.90;;;;;;5074176;28;20209;-76
2022/12/29 04:40:30;;;;;;;17.63;11.13;;;2.20;99.90;;;;;;5075309;28;20563;-76
2022/12/29 04:42:57;;;;;;;17.20;11.07;;;2.20;99.90;;;;;;5075583;28;20208;-76
2022/12/29 04:45:23;;;;;;;19.07;10.43;;;2.20;99.90;;;;;;5075153;28;20721;-76
2022/12/29 04:47:50;;;;;;;15.93;10.33;;;2.20;99.90;;;;;;5076944;28;20200;-76
2022/12/29 04:50:17;;;;;;;15.80;10.57;;;2.20;99.90;;;;;;5055138;28;20573;-76
2022/12/29 04:52:44;;;;;;;20.73;10.97;;;2.20;99.90;;;;;;5053980;28;20219;-77
2022/12/29 04:55:11;;;;;;;18.10;10.97;;;2.20;99.90;;;;;;5054555;28;20605;-76
2022/12/29 04:57:39;;;;;;;17.40;10.97;;;2.20;99.90;;;;;;5055019;28;20202;-76
2022/12/29 05:00:08;;;;;;;16.17;10.37;;;2.20;99.90;;;;;;5054772;28;20214;-76
2022/12/29 05:02:35;;;;;;;17.67;11.00;;;2.20;99.90;;;;;;5054981;28;20247;-76
2022/12/29 05:05:02;;;;;;;14.73;9.97;;;2.20;99.90;;;;;;5054873;28;20624;-75
2022/12/29 05:07:28;;;;;;;16.47;10.33;;;2.20;99.90;;;;;;5054443;28;20205;-76
2022/12/29 05:09:55;;;;;;;17.53;10.67;;;2.20;99.90;;;;;;5063380;28;20243;-75
2022/12/29 05:12:22;;;;;;;21.50;11.60;;;2.20;99.90;;;;;;5074037;28;20201;-76
2022/12/29 05:14:50;;;;;;;20.47;11.07;;;2.20;99.90;;;;;;5074213;28;20208;-77
2022/12/29 05:20:39;;;;;;;14.87;9.67;;;2.10;99.90;;;;;;5056828;28;20550;-75
2022/12/29 05:23:06;;;;;;;13.57;9.13;;;2.00;99.90;;;;;;5054419;28;20638;-76
2022/12/29 05:25:33;;;;;;;13.70;9.07;;;2.00;99.90;;;;;;5053410;28;20216;-75
2022/12/29 05:28:00;;;;;;;18.00;10.00;;;2.00;99.90;;;;;;5073046;28;20237;-75
2022/12/29 05:30:28;;;;;;;13.97;9.30;;;2.00;99.90;;;;;;5073677;28;20675;-75
2022/12/29 05:32:55;;;;;;;15.57;9.70;;;2.00;99.90;;;;;;5074273;28;20660;-77
2022/12/29 05:35:22;;;;;;;15.53;9.57;;;1.90;99.90;;;;;;5073775;28;20228;-75
2022/12/29 05:37:49;;;;;;;15.40;8.90;;;2.00;99.90;;;;;;5072802;28;20208;-77
2022/12/29 05:40:16;;;;;;;14.40;9.07;;;1.90;99.90;;;;;;5073024;28;20220;-77
2022/12/29 05:42:43;;;;;;;14.93;9.37;;;1.90;99.90;;;;;;5073957;28;20307;-78
2022/12/29 05:45:10;;;;;;;16.37;9.43;;;1.90;99.90;;;;;;5073248;28;20212;-77
2022/12/29 11:08:51;;;;;;;20.93;11.27;;;4.20;99.90;;;;;;5089896;27;20569;-69
2022/12/29 11:13:58;;;;;;;20.07;11.77;;;4.30;99.90;;;;;;5447026;22;20228;-72
2022/12/29 11:16:31;;;;;;;21.43;12.63;;;4.50;99.90;;;;;;5110243;28;20192;-72
2022/12/29 16:29:37;;;;;;;27.70;17.10;;;2.70;99.90;;;;;;5576915;22;21185;-73
2022/12/29 16:32:24;;;;;;;26.13;16.10;;;2.70;99.90;;;;;;5068970;28;20220;-75
2022/12/29 16:34:52;;;;;;;25.07;15.40;;;2.80;99.90;;;;;;5065242;28;20215;-73
2022/12/29 16:37:30;;;;;;;24.97;14.67;;;2.90;99.90;;;;;;5068466;28;20201;-71
2022/12/29 16:40:17;;;;;;;21.93;14.67;;;3.00;99.90;;;;;;5068566;28;20521;-71
2022/12/29 16:42:47;;;;;;;21.43;13.97;;;3.10;99.90;;;;;;5053517;28;20574;-71
2022/12/29 16:46:06;;;;;;;21.73;14.27;;;3.20;99.90;;;;;;5066049;28;20225;-70
2022/12/29 16:48:36;;;;;;;24.53;14.60;;;3.20;99.90;;;;;;5068284;28;20243;-71
2022/12/29 16:51:06;;;;;;;23.27;14.33;;;3.30;99.90;;;;;;5063700;28;20279;-73
2022/12/29 16:53:37;;;;;;;24.57;14.93;;;3.30;99.90;;;;;;5062081;28;20209;-72
2022/12/29 16:56:09;;;;;;;25.10;15.27;;;3.40;99.90;;;;;;5066405;28;20231;-75
2022/12/29 16:58:36;;;;;;;30.30;15.77;;;3.40;99.90;;;;;;5065981;28;20288;-74
2022/12/29 17:01:14;;;;;;;24.37;15.23;;;3.50;99.90;;;;;;5066008;28;20204;-73
2022/12/29 17:03:44;;;;;;;26.93;16.63;;;3.50;99.90;;;;;;5068095;28;20197;-72
2022/12/29 17:06:15;;;;;;;25.57;16.40;;;3.50;99.90;;;;;;5057662;28;20273;-72
2022/12/29 17:08:43;;;;;;;25.60;15.33;;;3.50;99.90;;;;;;5047669;28;20209;-73
2022/12/29 17:14:14;;;;;;;27.23;15.87;;;3.50;99.90;;;;;;5067965;28;20266;-74
2022/12/29 17:16:42;;;;;;;25.27;15.77;;;3.50;99.90;;;;;;5064775;28;20214;-72
2022/12/29 17:19:16;;;;;;;25.87;16.20;;;3.50;99.90;;;;;;5065718;28;20197;-72
2022/12/29 17:21:43;;;;;;;29.50;16.83;;;3.50;99.90;;;;;;5068003;28;20209;-73
2022/12/29 17:24:16;;;;;;;26.67;16.37;;;3.50;99.90;;;;;;5065434;28;20205;-72
2022/12/29 17:26:43;;;;;;;25.13;16.17;;;3.50;99.90;;;;;;5067398;28;20424;-73
2022/12/29 17:29:17;;;;;;;24.80;15.70;;;3.50;99.90;;;;;;5067432;28;20334;-72
2022/12/29 17:31:45;;;;;;;26.17;16.00;;;3.40;99.90;;;;;;5066280;28;20204;-73
2022/12/29 17:34:12;;;;;;;25.83;15.80;;;3.40;99.90;;;;;;5062682;28;20663;-72
2022/12/29 17:36:39;;;;;;;23.70;15.70;;;3.40;99.90;;;;;;5061014;28;20197;-73
2022/12/29 17:39:06;;;;;;;25.90;15.43;;;3.40;99.90;;;;;;5055926;28;20194;-73
2022/12/29 17:41:36;;;;;;;25.13;15.57;;;3.40;99.90;;;;;;5043858;28;20209;-70
2022/12/29 17:44:03;;;;;;;22.57;14.53;;;3.30;99.90;;;;;;5047727;28;20194;-70
2022/12/29 17:46:30;;;;;;;26.93;15.90;;;3.30;99.90;;;;;;5053950;28;20205;-71
2022/12/29 17:48:58;;;;;;;27.63;16.80;;;3.30;99.90;;;;;;5040460;28;20226;-71
2022/12/29 17:51:25;;;;;;;31.90;17.23;;;3.30;99.90;;;;;;5045584;28;20209;-70
2022/12/29 17:53:51;;;;;;;28.00;17.10;;;3.20;99.90;;;;;;5052320;28;20205;-69
2022/12/29 17:56:19;;;;;;;28.23;17.07;;;3.20;99.90;;;;;;5054328;28;20222;-71
2022/12/29 17:58:48;;;;;;;26.67;16.50;;;3.10;99.90;;;;;;5054148;28;20212;-71
2022/12/29 18:01:15;;;;;;;25.47;15.90;;;3.10;99.90;;;;;;5050155;28;20622;-77
2022/12/29 18:03:41;;;;;;;28.50;17.57;;;3.10;99.90;;;;;;5052590;28;20197;-77
2022/12/29 18:06:12;;;;;;;28.00;17.07;;;3.10;99.90;;;;;;5056704;28;20721;-76
2022/12/29 18:08:40;;;;;;;25.43;16.67;;;3.10;99.90;;;;;;5043651;28;20237;-78
2022/12/29 18:11:20;;;;;;;24.47;16.40;;;3.10;99.90;;;;;;5038140;28;20225;-77
2022/12/29 18:13:46;;;;;;;26.80;15.90;;;3.10;99.90;;;;;;5038013;28;20539;-77
2022/12/29 18:16:14;;;;;;;26.73;16.13;;;3.10;99.90;;;;;;5039291;28;20302;-75
2022/12/29 18:18:40;;;;;;;27.07;14.97;;;3.10;99.90;;;;;;5039128;28;20206;-78
2022/12/29 18:21:16;;;;;;;27.63;16.33;;;3.10;99.90;;;;;;5050396;28;20214;-77
2022/12/29 18:23:42;;;;;;;29.50;16.80;;;3.10;99.90;;;;;;5054499;28;20215;-77
2022/12/29 18:26:16;;;;;;;37.13;23.23;;;3.10;99.90;;;;;;5055248;28;20205;-78
2022/12/29 18:28:47;;;;;;;28.33;17.87;;;3.10;99.90;;;;;;5049058;28;20681;-76
2022/12/29 18:31:18;;;;;;;46.23;27.93;;;3.00;99.90;;;;;;5046137;28;20325;-73
2022/12/29 18:33:45;;;;;;;32.40;19.67;;;3.00;99.90;;;;;;5052645;28;20565;-73
2022/12/29 18:36:14;;;;;;;31.47;19.03;;;3.00;99.90;;;;;;5051599;28;20205;-73
2022/12/29 18:38:42;;;;;;;27.97;18.43;;;3.00;99.90;;;;;;5051320;28;20209;-72
2022/12/29 18:41:15;;;;;;;26.33;17.80;;;3.00;99.90;;;;;;5050887;28;20223;-73
2022/12/29 18:43:42;;;;;;;27.73;17.00;;;3.10;99.90;;;;;;5051450;28;20201;-76
2022/12/29 18:46:10;;;;;;;23.33;16.43;;;3.10;99.90;;;;;;5043591;28;20193;-75
2022/12/29 18:48:37;;;;;;;25.97;16.47;;;3.10;99.90;;;;;;5052726;28;20221;-73
2022/12/29 18:51:04;;;;;;;24.37;16.03;;;3.10;99.90;;;;;;5031769;28;20202;-73
2022/12/29 18:53:36;;;;;;;26.73;16.27;;;3.10;99.90;;;;;;5047395;28;20209;-74
2022/12/29 18:56:02;;;;;;;23.50;15.17;;;3.10;99.90;;;;;;5053074;28;20239;-74
2022/12/29 18:58:29;;;;;;;24.40;15.40;;;3.20;99.90;;;;;;5052988;28;20558;-74
2022/12/29 19:00:56;;;;;;;26.00;16.47;;;3.20;99.90;;;;;;5052944;28;20216;-73
2022/12/29 19:03:23;;;;;;;28.93;15.90;;;3.20;99.90;;;;;;5052279;28;20254;-74
2022/12/29 19:05:50;;;;;;;27.97;16.57;;;3.30;99.90;;;;;;5052833;28;20232;-74
2022/12/29 19:08:16;;;;;;;27.73;16.93;;;3.30;99.90;;;;;;5050780;28;20225;-74
2022/12/29 19:10:45;;;;;;;24.10;15.80;;;3.30;99.90;;;;;;5052592;28;20205;-74
2022/12/29 19:13:17;;;;;;;25.90;17.03;;;3.30;99.90;;;;;;5053056;28;20288;-74
2022/12/29 19:15:45;;;;;;;25.83;15.63;;;3.30;99.90;;;;;;5049252;28;20209;-74
2022/12/29 19:18:21;;;;;;;25.13;16.17;;;3.40;99.90;;;;;;5050849;28;20225;-75
2022/12/29 19:20:50;;;;;;;27.07;16.90;;;3.50;99.90;;;;;;5047529;28;20205;-74
2022/12/29 19:23:19;;;;;;;25.23;15.93;;;3.50;99.90;;;;;;5050940;28;20650;-73
2022/12/29 19:25:48;;;;;;;25.17;15.77;;;3.50;99.90;;;;;;5051182;28;20205;-75
2022/12/29 19:28:18;;;;;;;25.17;14.93;;;3.50;99.90;;;;;;5051501;28;20201;-74
2022/12/29 19:30:45;;;;;;;26.63;15.67;;;3.50;99.90;;;;;;5050258;28;20241;-74
2022/12/29 19:33:12;;;;;;;22.40;13.93;;;3.60;99.90;;;;;;5051448;28;20212;-72
2022/12/29 19:35:39;;;;;;;22.97;14.20;;;3.60;99.90;;;;;;5048948;28;20680;-75
2022/12/29 19:38:07;;;;;;;23.40;13.80;;;3.50;99.90;;;;;;5051443;28;20205;-75
2022/12/29 19:40:34;;;;;;;23.80;14.43;;;3.60;99.90;;;;;;5050469;28;20201;-74
2022/12/29 19:43:02;;;;;;;22.53;13.87;;;3.60;99.90;;;;;;5051086;28;20201;-73
2022/12/29 19:45:29;;;;;;;24.60;13.90;;;3.60;99.90;;;;;;5047511;28;20206;-76
2022/12/29 19:47:55;;;;;;;21.00;13.43;;;3.70;99.90;;;;;;5049625;28;20202;-74
2022/12/29 19:50:22;;;;;;;23.77;14.90;;;3.70;99.90;;;;;;5045692;28;20255;-74
2022/12/29 19:52:49;;;;;;;21.50;14.10;;;3.80;99.90;;;;;;5050710;28;20205;-74
2022/12/29 19:55:16;;;;;;;23.83;14.80;;;3.80;99.90;;;;;;5047631;28;20664;-74
2022/12/29 19:57:43;;;;;;;26.03;15.87;;;3.80;99.90;;;;;;5050807;28;20205;-73
2022/12/29 20:00:13;;;;;;;24.93;14.43;;;3.80;99.90;;;;;;5044945;28;20197;-74
2022/12/29 20:02:40;;;;;;;34.13;20.00;;;3.80;99.90;;;;;;5045691;28;20573;-73
2022/12/29 20:05:08;;;;;;;32.87;17.97;;;3.80;99.90;;;;;;5050917;28;20201;-74
2022/12/29 20:07:35;;;;;;;24.70;15.17;;;3.80;99.90;;;;;;5048005;28;20225;-75
2022/12/29 20:10:02;;;;;;;30.17;18.20;;;3.80;99.90;;;;;;5034726;28;20316;-73
2022/12/29 20:12:29;;;;;;;27.90;17.23;;;3.80;99.90;;;;;;5050816;28;20661;-74
2022/12/29 20:14:56;;;;;;;26.47;15.67;;;3.80;99.90;;;;;;5050542;28;20231;-74
2022/12/29 20:17:24;;;;;;;24.63;14.40;;;3.80;99.90;;;;;;5051257;28;20202;-73
2022/12/29 20:19:51;;;;;;;24.03;15.00;;;3.80;99.90;;;;;;5048554;28;20648;-75
2022/12/29 20:22:18;;;;;;;22.17;14.33;;;3.80;99.90;;;;;;5049645;28;20255;-74
2022/12/29 20:24:45;;;;;;;21.20;14.00;;;3.80;99.90;;;;;;5049558;28;20201;-74
2022/12/29 20:27:13;;;;;;;23.17;14.03;;;3.80;99.90;;;;;;5051450;28;20610;-72
2022/12/29 20:29:42;;;;;;;24.10;14.40;;;3.90;99.90;;;;;;5051027;28;20229;-73
2022/12/29 20:32:11;;;;;;;20.90;13.27;;;3.90;99.90;;;;;;5051638;28;20716;-74
2022/12/29 20:34:40;;;;;;;21.77;14.63;;;3.90;99.90;;;;;;5049833;28;20213;-73
2022/12/29 20:37:07;;;;;;;22.53;14.43;;;3.90;99.90;;;;;;5051158;28;20205;-75
2022/12/29 20:39:34;;;;;;;20.17;13.40;;;3.90;99.90;;;;;;5048391;28;20206;-72
2022/12/29 20:42:01;;;;;;;19.57;12.97;;;4.00;99.90;;;;;;5042754;28;20209;-73
2022/12/29 20:44:30;;;;;;;22.50;13.37;;;3.90;99.90;;;;;;5036816;28;20226;-74
2022/12/29 20:46:58;;;;;;;19.90;12.27;;;3.90;99.90;;;;;;5039104;28;20225;-72
2022/12/29 20:49:25;;;;;;;21.40;12.70;;;3.90;99.90;;;;;;5049764;28;20225;-74
2022/12/29 20:51:54;;;;;;;20.70;12.50;;;4.00;99.90;;;;;;5051244;28;20209;-75
2022/12/29 20:54:21;;;;;;;20.10;11.87;;;3.90;99.90;;;;;;5051103;28;20209;-72
2022/12/29 20:56:48;;;;;;;19.83;12.37;;;4.00;99.90;;;;;;5050855;28;20251;-72
2022/12/29 20:59:15;;;;;;;20.60;12.60;;;4.00;99.90;;;;;;5050813;28;20213;-75
2022/12/29 21:01:42;;;;;;;20.53;13.30;;;4.00;99.90;;;;;;5051180;28;20288;-73
2022/12/29 21:04:09;;;;;;;23.03;12.90;;;4.00;99.90;;;;;;5048646;28;20205;-74
2022/12/29 21:06:36;;;;;;;20.40;12.43;;;3.90;99.90;;;;;;5033686;28;20209;-73
2022/12/29 21:09:05;;;;;;;20.60;12.80;;;4.00;99.90;;;;;;5030773;28;20222;-72
2022/12/29 21:11:32;;;;;;;19.47;12.23;;;4.00;99.90;;;;;;5030790;28;20206;-74
2022/12/29 21:13:59;;;;;;;21.07;12.70;;;4.00;99.90;;;;;;5030851;28;20206;-72
2022/12/29 21:16:26;;;;;;;19.30;11.97;;;4.00;99.90;;;;;;5054496;28;20303;-75
2022/12/29 21:18:53;;;;;;;17.43;11.90;;;4.00;99.90;;;;;;5049620;28;20197;-74
2022/12/29 21:21:22;;;;;;;19.07;12.47;;;4.10;99.90;;;;;;5047995;28;20198;-73
2022/12/29 21:23:49;;;;;;;19.73;11.80;;;4.10;99.90;;;;;;5053005;28;20205;-72
2022/12/29 21:26:19;;;;;;;20.80;12.83;;;4.10;99.90;;;;;;5052723;28;20300;-73
2022/12/29 21:28:46;;;;;;;19.27;12.43;;;4.10;99.90;;;;;;5050124;28;20284;-72
2022/12/29 21:31:24;;;;;;;22.17;13.10;;;4.10;99.90;;;;;;5052732;28;20243;-73
2022/12/29 21:33:51;;;;;;;20.00;12.97;;;4.10;99.90;;;;;;5051156;28;20205;-71
2022/12/29 21:36:18;;;;;;;19.67;12.60;;;4.00;99.90;;;;;;5052898;28;20285;-72
2022/12/29 21:38:46;;;;;;;22.13;12.70;;;4.00;99.90;;;;;;5054542;28;20707;-71
2022/12/29 21:41:14;;;;;;;21.53;12.80;;;4.10;99.90;;;;;;5054329;28;20230;-72
2022/12/29 21:45:23;;;;;;;19.13;12.00;;;4.00;99.90;;;;;;5050436;28;20201;-73
2022/12/29 21:46:29;;;;;;;18.20;12.13;;;4.00;99.90;;;;;;5051461;28;20605;-71
2022/12/29 21:48:56;;;;;;;17.80;11.87;;;4.00;99.90;;;;;;5053813;28;20205;-72
2022/12/29 21:56:51;;;;;;;19.80;12.17;;;4.10;99.90;;;;;;5012901;28;20222;-72
2022/12/29 22:13:02;;;;;;;18.07;11.53;;;4.10;99.90;;;;;;5044184;28;20273;-74
2022/12/29 22:15:33;;;;;;;19.27;12.47;;;4.10;99.90;;;;;;5041941;28;20206;-73
2022/12/29 22:18:01;;;;;;;18.80;12.20;;;4.10;99.90;;;;;;5041635;28;20549;-73
2022/12/29 22:20:30;;;;;;;16.83;11.33;;;4.10;99.90;;;;;;5042236;28;20245;-74
2022/12/29 22:22:57;;;;;;;17.57;11.27;;;4.10;99.90;;;;;;5045591;28;20212;-74
2022/12/29 22:25:24;;;;;;;16.60;11.33;;;4.10;99.90;;;;;;5052555;28;20201;-73
2022/12/29 22:27:51;;;;;;;19.93;12.10;;;4.10;99.90;;;;;;5049513;28;20204;-73
2022/12/29 22:30:18;;;;;;;18.63;12.03;;;4.10;99.90;;;;;;5035878;28;20248;-71
2022/12/29 22:32:47;;;;;;;18.50;11.53;;;4.00;99.90;;;;;;5053188;28;20206;-70
2022/12/29 22:35:13;;;;;;;18.13;11.37;;;4.00;99.90;;;;;;5040801;28;20202;-70
2022/12/29 22:37:43;;;;;;;23.53;13.07;;;4.00;99.90;;;;;;5040147;28;20225;-70
2022/12/29 22:40:10;;;;;;;20.17;12.20;;;4.00;99.90;;;;;;5039254;28;20665;-69
2022/12/29 22:42:38;;;;;;;19.43;12.60;;;3.90;99.90;;;;;;4998492;28;20573;-70
2022/12/29 22:45:05;;;;;;;21.37;12.93;;;4.00;99.90;;;;;;5048547;28;20209;-69
2022/12/29 22:47:32;;;;;;;22.33;13.10;;;3.90;99.90;;;;;;5072298;28;20694;-69
2022/12/29 22:50:00;;;;;;;20.07;13.07;;;3.90;99.90;;;;;;5070232;28;20229;-69
2022/12/29 22:52:27;;;;;;;22.07;13.77;;;3.90;99.90;;;;;;5050956;28;20575;-72
2022/12/29 22:54:54;;;;;;;21.30;13.17;;;3.80;99.90;;;;;;5052253;28;20208;-71
2022/12/29 22:57:21;;;;;;;24.30;13.97;;;3.80;99.90;;;;;;5052096;28;20594;-69
2022/12/29 22:59:47;;;;;;;22.87;13.60;;;3.70;99.90;;;;;;5052588;28;20206;-72
2022/12/29 23:02:14;;;;;;;20.40;13.03;;;3.70;99.90;;;;;;5051983;28;20205;-71
2022/12/29 23:04:41;;;;;;;23.63;14.10;;;3.70;99.90;;;;;;5043516;28;20209;-69
2022/12/29 23:07:09;;;;;;;21.83;13.63;;;3.70;99.90;;;;;;5051993;28;20201;-71
2022/12/29 23:09:36;;;;;;;21.17;12.60;;;3.70;99.90;;;;;;5048264;28;20229;-70
2022/12/29 23:12:02;;;;;;;21.43;13.67;;;3.60;99.90;;;;;;5047318;28;20456;-71
2022/12/29 23:14:29;;;;;;;19.87;12.97;;;3.60;99.90;;;;;;5043711;28;20213;-70
2022/12/29 23:16:56;;;;;;;22.67;14.30;;;3.60;99.90;;;;;;5050681;28;20205;-72
2022/12/29 23:19:23;;;;;;;20.80;13.60;;;3.50;99.90;;;;;;5052287;28;20212;-71
2022/12/29 23:21:49;;;;;;;21.97;13.73;;;3.50;99.90;;;;;;5043069;28;20202;-69
2022/12/29 23:24:17;;;;;;;21.07;13.13;;;3.50;99.90;;;;;;5031970;28;20688;-70
2022/12/29 23:26:46;;;;;;;21.07;12.90;;;3.50;99.90;;;;;;5032219;28;20824;-70
2022/12/29 23:29:15;;;;;;;21.17;13.60;;;3.50;99.90;;;;;;5031273;28;20220;-68
2022/12/29 23:31:42;;;;;;;22.73;13.53;;;3.40;99.90;;;;;;5045619;28;20205;-69
2022/12/29 23:34:10;;;;;;;20.73;13.33;;;3.40;99.90;;;;;;5051414;28;20217;-71
2022/12/29 23:36:37;;;;;;;23.00;13.97;;;3.40;99.90;;;;;;5051630;28;20692;-68
2022/12/29 23:39:05;;;;;;;19.93;12.83;;;3.30;99.90;;;;;;5051023;28;20240;-69
2022/12/29 23:41:33;;;;;;;23.30;13.17;;;3.30;99.90;;;;;;5051719;28;20327;-69
2022/12/29 23:43:59;;;;;;;22.27;13.70;;;3.30;99.90;;;;;;5051627;28;20271;-69
2022/12/29 23:46:29;;;;;;;20.33;13.43;;;3.30;99.90;;;;;;5051470;28;20204;-68
2022/12/29 23:48:57;;;;;;;21.07;12.47;;;3.30;99.90;;;;;;5051510;28;20219;-68
2022/12/29 23:51:24;;;;;;;21.20;12.97;;;3.30;99.90;;;;;;5051385;28;20221;-69
2022/12/29 23:53:50;;;;;;;20.53;12.47;;;3.20;99.90;;;;;;5051571;28;20205;-68
2022/12/29 23:56:20;;;;;;;20.20;12.83;;;3.20;99.90;;;;;;5041255;28;20209;-70
2022/12/29 23:58:48;;;;;;;22.90;13.17;;;3.20;99.90;;;;;;5031456;28;20208;-70
